Time;durP1;ratioP1;P1;durP2;ratioP2;P2;SDS_P1;SDS_P2;PMS_P1;PMS_P2;Temp;Humidity;BMP_temperature;BMP_pressure;BME280_temperature;BME280_humidity;BME280_pressure;Samples;Min_cycle;Max_cycle;Signal;HPM_P1;HPM_P2
2022/08/15 00:01:36;;;;;;;10.25;7.42;;;;;;;19.96;88.29;95804.19;1694421;82;21015;-83
2022/08/15 00:04:04;;;;;;;9.58;8.33;;;;;;;19.94;88.06;95807.08;1675696;83;21363;-83
2022/08/15 00:06:41;;;;;;;10.28;8.00;;;;;;;19.94;88.13;95803.13;1690602;83;21023;-83
2022/08/15 00:09:18;;;;;;;9.63;7.80;;;;;;;19.96;88.29;95804.19;1690423;82;21455;-83
2022/08/15 00:11:46;;;;;;;9.10;7.72;;;;;;;19.94;88.28;95799.17;1707372;82;20976;-83
2022/08/15 00:14:33;;;;;;;13.62;10.15;;;;;;;19.95;88.27;95798.64;1685829;83;21422;-82
2022/08/15 00:17:01;;;;;;;10.20;9.20;;;;;;;19.91;88.07;95793.62;1669125;83;21051;-84
2022/08/15 00:19:29;;;;;;;9.98;8.85;;;;;;;19.86;88.07;95795.70;1666614;85;21015;-83
2022/08/15 00:21:59;;;;;;;8.48;7.60;;;;;;;19.78;88.03;95799.59;1669625;83;20988;-83
2022/08/15 00:24:28;;;;;;;8.75;7.83;;;;;;;19.70;88.20;95793.49;1689704;84;21016;-83
2022/08/15 00:26:56;;;;;;;8.55;7.75;;;;;;;19.62;88.45;95791.84;1685736;83;21339;-83
2022/08/15 00:29:23;;;;;;;9.08;7.83;;;;;;;19.58;88.96;95800.78;1686755;83;20988;-83
2022/08/15 00:31:51;;;;;;;9.28;8.20;;;;;;;19.56;89.58;95799.44;1676760;83;21344;-83
2022/08/15 00:34:16;;;;;;;8.88;7.97;;;;;;;19.54;89.86;95797.06;1660882;86;21026;-83
2022/08/15 00:36:43;;;;;;;10.45;9.25;;;;;;;19.54;89.99;95801.51;1640040;86;21340;-83
2022/08/15 00:39:09;;;;;;;10.03;9.13;;;;;;;19.50;90.00;95796.72;1617816;86;20961;-83
2022/08/15 00:41:41;;;;;;;12.28;9.53;;;;;;;19.48;90.08;95787.48;1627280;86;21013;-83
2022/08/15 00:44:34;;;;;;;10.88;9.78;;;;;;;19.47;90.09;95792.48;1636303;86;21686;-83
2022/08/15 00:47:05;;;;;;;10.32;9.20;;;;;;;19.46;90.16;95787.73;1617733;86;21112;-82
2022/08/15 00:49:32;;;;;;;12.78;9.95;;;;;;;19.43;90.26;95786.13;1617688;86;21112;-83
2022/08/15 00:52:09;;;;;;;10.23;9.13;;;;;;;19.42;90.50;95790.61;1630014;86;21049;-82
2022/08/15 00:54:44;;;;;;;10.58;9.15;;;;;;;19.42;90.46;95799.03;1624486;87;21080;-83
2022/08/15 00:57:19;;;;;;;10.08;9.10;;;;;;;19.41;90.60;95799.56;1626730;86;21352;-83
2022/08/15 00:59:58;;;;;;;10.98;9.60;;;;;;;19.38;90.54;95796.64;1640114;86;21017;-83
2022/08/15 01:02:28;;;;;;;11.25;9.45;;;;;;;19.39;90.68;95794.27;1643611;87;20997;-83
2022/08/15 01:04:53;;;;;;;11.10;9.33;;;;;;;19.38;90.52;95802.70;1639983;86;21014;-83
2022/08/15 01:07:20;;;;;;;11.30;9.45;;;;;;;19.35;90.63;95798.44;1630058;87;21004;-84
2022/08/15 01:09:46;;;;;;;11.43;9.25;;;;;;;19.31;90.74;95796.03;1637880;86;21025;-83
2022/08/15 01:12:19;;;;;;;12.47;9.35;;;;;;;19.24;90.77;95788.35;1643625;87;20986;-82
2022/08/15 01:14:51;;;;;;;12.07;9.65;;;;;;;19.22;91.04;95785.70;1658784;85;21446;-83
2022/08/15 01:17:17;;;;;;;10.30;9.25;;;;;;;19.16;91.11;95780.89;1680141;83;21035;-83
2022/08/15 01:19:49;;;;;;;10.88;9.65;;;;;;;19.13;91.27;95785.34;1703127;82;21319;-83
2022/08/15 01:22:58;;;;;;;10.53;9.33;;;;;;;19.11;91.36;95779.54;1678408;82;21075;-82
2022/08/15 01:25:47;;;;;;;10.68;9.58;;;;;;;19.06;91.64;95775.55;1695793;82;20939;-83
2022/08/15 01:28:23;;;;;;;10.28;9.18;;;;;;;18.98;91.72;95774.15;1684033;82;21022;-83
2022/08/15 01:30:56;;;;;;;12.40;9.13;;;;;;;18.92;91.97;95764.63;1630272;84;21067;-83
2022/08/15 01:33:25;;;;;;;11.30;9.65;;;;;;;18.86;92.31;95763.77;1703241;82;21028;-83
2022/08/15 01:35:51;;;;;;;17.37;10.40;;;;;;;18.82;92.54;95763.20;1704160;84;20979;-82
2022/08/15 01:38:28;;;;;;;12.15;9.63;;;;;;;18.80;92.71;95766.60;1679200;82;21361;-83
2022/08/15 01:41:39;;;;;;;11.22;10.13;;;;;;;18.80;92.90;95767.92;1689909;82;21027;-83
2022/08/15 01:44:20;;;;;;;13.65;9.83;;;;;;;18.78;92.96;95768.69;1677071;82;21047;-83
2022/08/15 01:46:57;;;;;;;13.38;10.20;;;;;;;18.75;93.01;95763.92;1704428;83;21051;-82
2022/08/15 01:49:28;;;;;;;11.03;9.80;;;;;;;18.73;93.14;95759.44;1700542;82;21010;-83
2022/08/15 01:51:54;;;;;;;12.03;9.60;;;;;;;18.68;93.26;95751.47;1687459;82;21020;-82
2022/08/15 01:54:20;;;;;;;11.40;9.53;;;;;;;18.64;93.31;95753.02;1696021;82;21366;-83
2022/08/15 01:56:46;;;;;;;18.55;10.68;;;;;;;18.61;93.38;95751.64;1704212;82;20991;-83
2022/08/15 01:59:17;;;;;;;11.48;9.43;;;;;;;18.56;93.53;95755.02;1704375;82;21027;-82
2022/08/15 02:01:56;;;;;;;11.15;9.78;;;;;;;18.53;93.62;95748.13;1709997;82;20974;-83
2022/08/15 02:04:26;;;;;;;12.20;9.85;;;;;;;18.51;93.78;95752.84;1696579;82;20955;-82
2022/08/15 02:06:52;;;;;;;11.18;9.90;;;;;;;18.48;93.71;95753.34;1676221;82;21036;-82
2022/08/15 02:09:18;;;;;;;12.13;9.95;;;;;;;18.45;93.84;95753.84;1692346;82;21034;-83
2022/08/15 02:11:44;;;;;;;12.28;9.90;;;;;;;18.43;93.93;95754.61;1704151;82;20925;-83
2022/08/15 02:14:11;;;;;;;10.82;9.73;;;;;;;18.39;94.09;95750.36;1709229;82;21103;-83
2022/08/15 02:16:38;;;;;;;11.95;10.00;;;;;;;18.38;94.22;95751.38;1685867;83;20973;-82
2022/08/15 02:19:06;;;;;;;12.00;10.45;;;;;;;18.34;94.17;95746.34;1688899;82;20990;-83
2022/08/15 02:21:32;;;;;;;12.10;9.68;;;;;;;18.32;94.29;95748.42;1705499;83;21000;-83
2022/08/15 02:23:58;;;;;;;12.18;10.88;;;;;;;18.30;94.38;95748.67;1719023;82;20988;-82
2022/08/15 02:26:24;;;;;;;11.83;10.55;;;;;;;18.28;94.58;95749.96;1709622;82;20988;-83
2022/08/15 02:28:49;;;;;;;12.13;10.82;;;;;;;18.24;94.86;95745.72;1704917;83;21000;-83
2022/08/15 02:31:23;;;;;;;12.63;10.90;;;;;;;18.21;95.02;95742.77;1718579;82;21178;-82
2022/08/15 02:33:55;;;;;;;15.15;10.70;;;;;;;18.14;95.27;95742.16;1717829;82;21379;-83
2022/08/15 02:36:22;;;;;;;13.00;10.55;;;;;;;18.07;95.48;95745.50;1699008;82;21052;-83
2022/08/15 02:38:48;;;;;;;12.13;10.45;;;;;;;18.04;95.70;95745.97;1690720;83;21000;-83
2022/08/15 02:41:25;;;;;;;12.82;10.40;;;;;;;17.99;95.71;95743.55;1696013;82;21351;-83
2022/08/15 02:43:51;;;;;;;11.97;10.20;;;;;;;17.95;96.02;95740.35;1713315;82;20968;-82
2022/08/15 02:46:18;;;;;;;12.73;10.38;;;;;;;17.91;96.07;95737.94;1713542;82;21405;-83
2022/08/15 02:48:44;;;;;;;11.97;10.65;;;;;;;17.86;96.21;95737.85;1690546;82;21431;-83
2022/08/15 02:51:12;;;;;;;11.78;10.58;;;;;;;17.82;96.20;95732.30;1710614;82;21071;-83
2022/08/15 02:53:43;;;;;;;11.45;10.10;;;;;;;17.79;96.55;95734.09;1698086;82;21450;-83
2022/08/15 02:56:08;;;;;;;10.68;9.48;;;;;;;17.78;96.58;95738.28;1701770;82;21410;-82
2022/08/15 02:58:34;;;;;;;11.57;10.00;;;;;;;17.73;96.63;95731.11;1710863;82;21052;-83
2022/08/15 03:01:00;;;;;;;11.25;10.03;;;;;;;17.70;96.58;95731.59;1693301;82;21368;-83
2022/08/15 03:03:26;;;;;;;10.75;9.45;;;;;;;17.67;96.40;95733.37;1690572;82;21522;-83
2022/08/15 03:05:52;;;;;;;11.03;9.18;;;;;;;17.66;96.35;95731.26;1699149;82;21044;-83
2022/08/15 03:08:18;;;;;;;10.18;9.13;;;;;;;17.65;96.18;95730.98;1684638;85;21046;-82
2022/08/15 03:10:43;;;;;;;10.23;9.08;;;;;;;17.65;95.99;95734.13;1714340;82;21364;-83
2022/08/15 03:13:11;;;;;;;9.13;7.92;;;;;;;17.63;95.85;95733.58;1697635;82;21049;-82
2022/08/15 03:15:50;;;;;;;9.88;8.43;;;;;;;17.61;95.78;95731.72;1695931;82;21051;-83
2022/08/15 03:18:15;;;;;;;9.35;8.45;;;;;;;17.59;95.73;95732.48;1690590;82;21414;-83
2022/08/15 03:20:42;;;;;;;10.15;8.40;;;;;;;17.57;95.74;95728.78;1690471;82;20928;-83
2022/08/15 03:23:07;;;;;;;10.50;8.40;;;;;;;17.59;95.96;95728.53;1713025;82;21084;-82
2022/08/15 03:25:41;;;;;;;9.75;8.15;;;;;;;17.60;95.89;95722.25;1719298;82;21395;-83
2022/08/15 03:28:08;;;;;;;9.60;7.58;;;;;;;17.60;96.12;95724.35;1697535;82;21383;-82
2022/08/15 03:30:34;;;;;;;10.63;8.00;;;;;;;17.62;96.19;95723.59;1725268;83;20986;-83
2022/08/15 03:33:00;;;;;;;9.03;8.08;;;;;;;17.64;96.35;95718.09;1720910;82;21089;-83
2022/08/15 03:35:29;;;;;;;9.33;7.83;;;;;;;17.63;96.20;95712.05;1719095;82;21514;-82
2022/08/15 03:37:57;;;;;;;9.35;8.15;;;;;;;17.62;95.90;95712.29;1718085;82;20952;-83
2022/08/15 03:40:22;;;;;;;9.45;7.72;;;;;;;17.60;95.77;95716.47;1710139;82;21042;-83
2022/08/15 03:42:57;;;;;;;9.08;7.33;;;;;;;17.61;95.66;95715.95;1694182;82;21039;-82
2022/08/15 03:45:25;;;;;;;7.83;6.97;;;;;;;17.61;95.39;95718.58;1690575;82;21131;-83
2022/08/15 03:47:50;;;;;;;8.30;7.50;;;;;;;17.58;95.16;95714.61;1714098;82;20959;-83
2022/08/15 03:50:16;;;;;;;9.33;7.55;;;;;;;17.58;95.19;95711.19;1718519;82;20974;-83
2022/08/15 03:52:58;;;;;;;8.05;7.25;;;;;;;17.59;95.02;95716.72;1723172;82;20953;-83
2022/08/15 03:55:25;;;;;;;9.88;6.22;;;;;;;17.59;94.91;95712.78;1711641;82;20948;-82
2022/08/15 03:57:52;;;;;;;7.85;6.35;;;;;;;17.61;95.00;95714.64;1704245;82;21072;-83
2022/08/15 04:00:24;;;;;;;8.38;7.47;;;;;;;17.61;95.03;95715.95;1718505;82;20976;-83
2022/08/15 04:02:49;;;;;;;6.20;5.60;;;;;;;17.63;94.99;95712.05;1714882;82;21394;-83
2022/08/15 04:05:15;;;;;;;8.08;7.03;;;;;;;17.64;95.01;95712.84;1717363;83;21047;-83
2022/08/15 04:07:41;;;;;;;8.38;6.92;;;;;;;17.65;94.95;95719.68;1694687;82;20944;-83
2022/08/15 04:10:15;;;;;;;8.85;6.72;;;;;;;17.66;94.98;95717.33;1690228;82;21028;-82
2022/08/15 04:12:41;;;;;;;7.90;6.37;;;;;;;17.69;95.20;95720.30;1690548;82;20995;-83
2022/08/15 04:15:13;;;;;;;7.42;6.72;;;;;;;17.73;94.87;95722.43;1709468;81;21150;-82
2022/08/15 04:17:38;;;;;;;7.72;6.92;;;;;;;17.75;94.69;95721.17;1712105;81;20998;-83
2022/08/15 04:20:05;;;;;;;10.13;6.00;;;;;;;17.78;94.77;95723.31;1717459;83;20952;-83
2022/08/15 04:22:41;;;;;;;6.30;5.70;;;;;;;17.79;95.10;95717.54;1723337;81;20973;-83
2022/08/15 04:25:14;;;;;;;7.12;5.78;;;;;;;17.80;95.04;95721.75;1716878;82;21042;-82
2022/08/15 04:27:40;;;;;;;8.28;5.60;;;;;;;17.81;94.83;95724.66;1729866;81;21386;-83
2022/08/15 04:30:07;;;;;;;7.80;6.47;;;;;;;17.78;94.60;95725.14;1731158;81;20995;-82
2022/08/15 04:32:33;;;;;;;7.70;5.83;;;;;;;17.72;94.42;95718.21;1740497;81;20985;-83
2022/08/15 04:34:59;;;;;;;7.37;6.55;;;;;;;17.67;94.51;95713.14;1732212;81;20947;-82
2022/08/15 04:37:28;;;;;;;7.75;6.95;;;;;;;17.64;95.00;95707.06;1713802;83;21414;-83
2022/08/15 04:39:56;;;;;;;8.15;6.35;;;;;;;17.62;95.16;95703.09;1705324;81;21027;-83
2022/08/15 04:42:24;;;;;;;7.42;6.42;;;;;;;17.62;95.45;95702.58;1703018;81;21096;-82
2022/08/15 04:44:50;;;;;;;8.03;7.22;;;;;;;17.63;95.56;95706.79;1703193;81;21532;-83
2022/08/15 04:47:16;;;;;;;7.47;6.50;;;;;;;17.65;95.62;95706.02;1702987;81;21050;-83
2022/08/15 04:49:42;;;;;;;7.67;6.87;;;;;;;17.68;95.74;95712.66;1714653;81;21006;-82
2022/08/15 04:52:17;;;;;;;7.78;6.97;;;;;;;17.70;95.70;95713.20;1702949;81;20951;-82
2022/08/15 04:54:43;;;;;;;9.33;6.65;;;;;;;17.72;95.70;95707.70;1705835;81;21394;-82
2022/08/15 04:57:09;;;;;;;9.65;6.70;;;;;;;17.74;95.82;95713.54;1702935;81;20979;-83
2022/08/15 04:59:36;;;;;;;7.70;6.90;;;;;;;17.74;95.98;95717.48;1731231;81;21067;-82
2022/08/15 05:02:10;;;;;;;9.50;6.70;;;;;;;17.74;96.13;95716.16;1694329;83;21047;-82
2022/08/15 05:04:36;;;;;;;7.35;6.60;;;;;;;17.73;96.18;95711.92;1679338;84;21055;-83
2022/08/15 05:07:02;;;;;;;8.28;7.15;;;;;;;17.70;96.13;95711.38;1681768;84;21071;-83
2022/08/15 05:09:28;;;;;;;9.55;6.83;;;;;;;17.69;96.18;95712.93;1655659;84;21353;-83
2022/08/15 05:11:54;;;;;;;8.48;7.40;;;;;;;17.67;96.26;95722.86;1656010;84;20983;-83
2022/08/15 05:14:19;;;;;;;7.42;6.50;;;;;;;17.65;96.52;95719.16;1663660;84;21138;-83
2022/08/15 05:16:45;;;;;;;7.37;6.67;;;;;;;17.65;96.48;95724.94;1647752;86;21770;-83
2022/08/15 05:19:11;;;;;;;7.65;6.75;;;;;;;17.63;96.39;95725.18;1654838;85;20993;-83
2022/08/15 05:21:38;;;;;;;9.55;6.92;;;;;;;17.63;96.63;95721.76;1634615;85;20960;-83
2022/08/15 05:24:04;;;;;;;6.87;6.28;;;;;;;17.64;96.93;95726.77;1636986;85;21312;-83
2022/08/15 05:26:30;;;;;;;7.80;6.62;;;;;;;17.68;97.23;95727.90;1641733;86;20984;-83
2022/08/15 05:28:56;;;;;;;8.85;6.92;;;;;;;17.73;97.44;95731.63;1661806;85;20961;-83
2022/08/15 05:31:22;;;;;;;7.95;7.05;;;;;;;17.78;97.47;95728.56;1661362;86;20969;-83
2022/08/15 05:33:48;;;;;;;9.45;7.12;;;;;;;17.83;97.47;95731.25;1650672;85;21003;-83
2022/08/15 05:36:14;;;;;;;7.70;6.87;;;;;;;17.88;97.43;95733.94;1608315;88;21061;-83
2022/08/15 05:38:47;;;;;;;7.22;6.35;;;;;;;17.94;97.53;95727.73;1642104;85;21343;-83
2022/08/15 05:41:52;;;;;;;7.95;6.33;;;;;;;18.00;97.84;95737.26;1661301;85;20984;-83
2022/08/15 05:44:34;;;;;;;7.30;6.60;;;;;;;18.08;97.92;95736.58;1654904;85;20980;-82
2022/08/15 05:47:35;;;;;;;7.62;6.67;;;;;;;18.19;98.42;95738.27;1634382;86;21012;-83
2022/08/15 05:50:27;;;;;;;11.83;9.00;;;;;;;18.33;98.91;95746.06;1634329;86;21416;-82
2022/08/15 05:53:14;;;;;;;10.20;9.10;;;;;;;18.48;99.27;95742.81;1643393;85;21064;-82
2022/08/15 05:55:51;;;;;;;9.58;8.33;;;;;;;18.63;99.27;95743.02;1634747;85;21036;-82
2022/08/15 05:58:22;;;;;;;9.23;8.25;;;;;;;18.77;98.82;95748.68;1634251;85;21093;-83
2022/08/15 06:01:11;;;;;;;12.90;8.73;;;;;;;18.87;98.71;95740.87;1640996;85;20969;-82
2022/08/15 06:03:37;;;;;;;9.05;8.20;;;;;;;18.98;98.33;95741.24;1661338;86;20977;-82
2022/08/15 06:06:07;;;;;;;8.60;6.92;;;;;;;19.07;98.08;95741.59;1641295;86;20944;-82
2022/08/15 06:08:35;;;;;;;14.30;7.42;;;;;;;19.13;98.23;95737.95;1648217;86;21416;-82
2022/08/15 06:11:08;;;;;;;10.03;6.33;;;;;;;19.20;98.06;95735.91;1634730;85;21068;-83
2022/08/15 06:13:40;;;;;;;9.68;6.00;;;;;;;19.28;97.84;95734.64;1634716;85;20996;-83
2022/08/15 06:16:16;;;;;;;6.37;5.78;;;;;;;19.32;97.48;95735.72;1620175;85;21170;-83
2022/08/15 06:18:43;;;;;;;9.20;5.90;;;;;;;19.36;97.17;95739.44;1702450;83;21418;-83
2022/08/15 06:21:32;;;;;;;8.05;7.25;;;;;;;19.42;97.27;95739.23;1701017;81;21008;-82
2022/08/15 06:24:24;;;;;;;8.80;7.50;;;;;;;19.49;97.18;95743.75;1714932;82;21446;-82
2022/08/15 06:27:18;;;;;;;9.68;8.68;;;;;;;19.58;97.34;95736.73;1715233;82;21031;-83
2022/08/15 06:30:12;;;;;;;8.85;7.95;;;;;;;19.65;97.52;95738.09;1720554;81;21013;-83
2022/08/15 06:33:16;;;;;;;8.20;7.08;;;;;;;19.70;97.04;95734.19;1728512;82;20960;-82
2022/08/15 06:35:46;;;;;;;7.37;6.67;;;;;;;19.71;96.92;95736.30;1702641;83;20932;-83
2022/08/15 06:38:45;;;;;;;7.62;6.83;;;;;;;19.70;96.94;95739.46;1700205;81;20998;-83
2022/08/15 06:41:22;;;;;;;7.90;7.10;;;;;;;19.74;97.25;95741.84;1710352;81;20978;-82
2022/08/15 06:43:48;;;;;;;8.53;6.47;;;;;;;19.79;97.17;95733.17;1705886;81;20998;-82
2022/08/15 06:46:14;;;;;;;8.75;7.12;;;;;;;19.83;97.11;95739.52;1714454;81;21452;-82
2022/08/15 06:48:41;;;;;;;11.03;8.58;;;;;;;19.85;97.14;95747.16;1712853;81;21054;-82
2022/08/15 06:51:07;;;;;;;8.48;7.12;;;;;;;19.87;97.62;95745.89;1700180;81;21322;-83
2022/08/15 06:53:46;;;;;;;8.70;6.42;;;;;;;19.91;97.28;95751.44;1700219;83;21090;-83
2022/08/15 06:56:33;;;;;;;10.23;9.23;;;;;;;19.97;97.25;95746.45;1719959;81;21126;-82
2022/08/15 06:59:25;;;;;;;13.32;10.10;;;;;;;20.02;97.27;95749.13;1738275;82;20990;-83
2022/08/15 07:02:23;;;;;;;8.68;7.83;;;;;;;20.08;97.08;95750.20;1719499;82;21008;-83
2022/08/15 07:05:14;;;;;;;9.05;8.15;;;;;;;20.17;97.04;95752.34;1722419;81;21102;-83
2022/08/15 07:07:48;;;;;;;10.98;8.83;;;;;;;20.25;97.31;95753.97;1699349;81;20972;-83
2022/08/15 07:10:25;;;;;;;10.68;9.58;;;;;;;20.30;96.93;95752.66;1723383;81;21389;-83
2022/08/15 07:13:06;;;;;;;11.38;10.03;;;;;;;20.37;96.91;95760.36;1700142;81;20932;-83
2022/08/15 07:15:52;;;;;;;10.38;9.23;;;;;;;20.44;96.79;95758.29;1690071;82;21083;-83
2022/08/15 07:18:40;;;;;;;10.45;9.45;;;;;;;20.54;96.22;95764.14;1692595;83;21047;-83
2022/08/15 07:21:14;;;;;;;10.28;9.28;;;;;;;20.62;95.17;95762.30;1690793;82;21430;-82
2022/08/15 07:24:11;;;;;;;10.48;9.48;;;;;;;20.71;95.22;95766.04;1700170;82;21047;-83
2022/08/15 07:26:57;;;;;;;9.55;8.65;;;;;;;20.77;95.23;95766.83;1718562;83;21035;-83
2022/08/15 07:29:41;;;;;;;12.05;10.15;;;;;;;20.89;95.37;95771.36;1710060;82;21050;-83
2022/08/15 07:32:30;;;;;;;11.28;10.18;;;;;;;20.99;95.14;95763.47;1702298;82;21480;-82
2022/08/15 07:35:13;;;;;;;11.93;10.40;;;;;;;21.10;95.45;95766.89;1696222;82;21055;-83
2022/08/15 07:37:56;;;;;;;9.98;8.98;;;;;;;21.20;94.98;95765.06;1690743;82;21438;-83
2022/08/15 07:40:40;;;;;;;12.15;10.08;;;;;;;21.27;95.13;95766.93;1711411;82;20953;-83
2022/08/15 07:43:28;;;;;;;9.60;8.60;;;;;;;21.31;94.30;95772.47;1728744;83;21368;-83
2022/08/15 07:46:14;;;;;;;12.05;10.75;;;;;;;21.35;94.90;95765.63;1689557;82;21039;-83
2022/08/15 07:48:40;;;;;;;10.60;9.45;;;;;;;21.39;94.54;95765.89;1709150;82;21097;-83
2022/08/15 07:51:23;;;;;;;11.88;10.30;;;;;;;21.45;94.34;95766.92;1682486;83;21461;-83
2022/08/15 07:54:01;;;;;;;11.43;10.32;;;;;;;21.49;93.39;95762.72;1717696;82;20978;-83
2022/08/15 07:56:28;;;;;;;13.20;10.93;;;;;;;21.56;93.13;95761.91;1727737;82;21095;-83
2022/08/15 07:59:13;;;;;;;12.30;10.45;;;;;;;21.64;92.27;95765.06;1713421;82;21039;-83
2022/08/15 08:01:38;;;;;;;11.10;9.63;;;;;;;21.70;92.29;95767.98;1700870;83;21041;-83
2022/08/15 08:04:12;;;;;;;11.28;10.03;;;;;;;21.73;91.65;95765.59;1718844;82;21056;-83
2022/08/15 08:06:48;;;;;;;10.98;9.80;;;;;;;21.81;90.83;95757.66;1700647;82;21000;-83
2022/08/15 08:09:43;;;;;;;11.55;10.35;;;;;;;21.91;91.34;95759.48;1678601;83;21003;-83
2022/08/15 08:12:37;;;;;;;11.12;9.95;;;;;;;22.00;91.28;95754.70;1708108;82;21072;-83
2022/08/15 08:15:29;;;;;;;10.50;9.40;;;;;;;22.08;91.67;95756.81;1718511;82;20976;-82
2022/08/15 08:18:14;;;;;;;11.68;10.20;;;;;;;22.18;91.86;95765.27;1694084;82;21084;-83
2022/08/15 08:20:53;;;;;;;10.98;9.78;;;;;;;22.22;89.94;95768.16;1690719;83;20975;-83
2022/08/15 08:23:40;;;;;;;11.57;9.98;;;;;;;22.27;90.45;95774.74;1693682;82;21382;-83
2022/08/15 08:26:41;;;;;;;10.32;9.43;;;;;;;22.36;91.00;95772.60;1710109;82;21040;-83
2022/08/15 08:29:33;;;;;;;11.03;9.93;;;;;;;22.49;91.37;95779.70;1716404;82;20997;-83
2022/08/15 08:32:05;;;;;;;;;;;;;;;22.61;90.63;95779.63;1701582;83;20980;-83
2022/08/15 08:34:42;;;;;;;9.98;9.03;;;;;;;22.75;89.20;95781.95;1718127;83;20343;-83
2022/08/15 08:37:28;;;;;;;11.10;9.28;;;;;;;22.84;89.05;95784.06;1693812;82;20995;-83
2022/08/15 08:42:47;;;;;;;10.68;9.68;;;;;;;23.01;87.23;95777.87;1654597;85;21000;-82
2022/08/15 08:45:30;;;;;;;10.93;9.83;;;;;;;23.09;87.86;95779.13;1694038;82;21034;-83
2022/08/15 08:48:05;;;;;;;12.63;11.30;;;;;;;23.19;87.42;95776.42;1717471;82;21348;-82
2022/08/15 08:50:46;;;;;;;10.95;9.85;;;;;;;23.25;85.25;95778.75;1719294;82;21060;-83
2022/08/15 08:53:54;;;;;;;12.03;10.38;;;;;;;23.33;86.44;95775.52;1691278;82;21055;-83
2022/08/15 08:56:28;;;;;;;10.93;9.93;;;;;;;23.43;84.39;95780.47;1701809;82;21020;-83
2022/08/15 08:59:23;;;;;;;11.18;10.13;;;;;;;23.54;83.83;95784.63;1709129;82;20984;-82
2022/08/15 09:01:54;;;;;;;13.13;11.70;;;;;;;23.61;85.18;95776.66;1713472;82;20932;-83
2022/08/15 09:04:25;;;;;;;11.60;9.98;;;;;;;23.71;85.15;95781.06;1719154;82;21038;-83
2022/08/15 09:06:51;;;;;;;12.05;10.85;;;;;;;23.78;84.64;95774.12;1697566;83;20944;-83
2022/08/15 09:09:35;;;;;;;13.60;11.15;;;;;;;23.84;83.09;95777.77;1696512;82;21065;-83
2022/08/15 09:15:00;;;;;;;11.68;10.48;;;;;;;23.94;84.48;95770.25;1693282;83;21020;-82
2022/08/15 09:17:26;;;;;;;11.68;10.30;;;;;;;23.99;81.09;95770.73;1692123;82;21034;-83
2022/08/15 09:20:13;;;;;;;12.65;11.40;;;;;;;24.03;82.01;95771.74;1715191;82;20999;-83
2022/08/15 09:22:39;;;;;;;11.15;9.83;;;;;;;24.08;81.36;95768.52;1715857;82;21020;-83
2022/08/15 09:25:06;;;;;;;12.35;10.90;;;;;;;24.18;81.31;95768.39;1718109;82;21317;-83
2022/08/15 09:27:48;;;;;;;11.63;10.50;;;;;;;24.25;82.79;95767.53;1704440;83;21020;-83
2022/08/15 09:30:14;;;;;;;12.05;10.85;;;;;;;24.29;81.48;95766.95;1722477;81;20964;-82
2022/08/15 09:33:03;;;;;;;11.88;10.68;;;;;;;24.38;82.81;95762.08;1718982;82;20960;-83
2022/08/15 09:35:40;;;;;;;11.55;10.00;;;;;;;24.40;80.11;95767.10;1703496;83;20956;-83
2022/08/15 09:38:47;;;;;;;10.78;9.70;;;;;;;24.44;81.82;95768.14;1702716;82;20981;-83
2022/08/15 09:41:42;;;;;;;11.20;10.08;;;;;;;24.49;79.77;95776.03;1689822;82;21036;-82
2022/08/15 09:44:29;;;;;;;11.25;10.15;;;;;;;24.46;76.99;95766.77;1690747;82;21394;-83
2022/08/15 09:47:23;;;;;;;11.55;10.45;;;;;;;24.50;78.60;95765.13;1695064;82;21115;-83
2022/08/15 09:50:17;;;;;;;9.53;8.63;;;;;;;24.56;78.02;95764.52;1702671;82;21002;-83
2022/08/15 09:53:08;;;;;;;11.05;9.95;;;;;;;24.61;76.51;95761.81;1700281;82;21401;-83
2022/08/15 09:55:46;;;;;;;11.45;10.25;;;;;;;24.64;78.02;95758.58;1723836;82;21345;-83
2022/08/15 09:58:25;;;;;;;11.57;10.45;;;;;;;24.66;77.93;95759.08;1722668;82;21359;-83
2022/08/15 10:01:16;;;;;;;12.33;10.30;;;;;;;24.71;78.21;95753.69;1713014;82;21334;-83
2022/08/15 10:03:49;;;;;;;11.28;10.13;;;;;;;24.77;78.78;95755.76;1689788;82;20933;-83
2022/08/15 10:06:23;;;;;;;11.20;9.95;;;;;;;24.82;79.25;95761.00;1690825;82;20967;-83
2022/08/15 10:09:01;;;;;;;10.70;9.60;;;;;;;24.84;77.21;95756.18;1628691;85;20972;-83
2022/08/15 10:11:39;;;;;;;12.03;10.20;;;;;;;24.84;77.21;95756.18;1705149;82;21386;-83
2022/08/15 10:14:08;;;;;;;10.03;8.98;;;;;;;24.91;76.59;95752.64;1695203;82;21331;-83
2022/08/15 10:16:42;;;;;;;12.20;10.90;;;;;;;24.99;76.97;95758.63;1694081;83;21055;-83
2022/08/15 10:19:38;;;;;;;12.15;11.03;;;;;;;25.01;77.75;95745.86;1732971;82;21412;-83
2022/08/15 10:22:25;;;;;;;11.45;10.35;;;;;;;25.05;76.81;95750.06;1716799;82;21035;-83
2022/08/15 10:25:28;;;;;;;10.78;9.68;;;;;;;25.08;76.68;95749.50;1696190;82;21047;-83
2022/08/15 10:28:08;;;;;;;10.25;9.20;;;;;;;25.13;76.76;95744.89;1701426;82;21030;-83
2022/08/15 10:30:46;;;;;;;11.03;9.88;;;;;;;25.25;77.78;95747.66;1684360;85;21016;-83
2022/08/15 10:33:35;;;;;;;10.75;9.25;;;;;;;25.20;77.63;95741.85;1720968;82;21016;-82
2022/08/15 10:36:16;;;;;;;11.03;9.95;;;;;;;25.20;77.63;95741.85;1724579;82;20964;-82
2022/08/15 10:39:11;;;;;;;10.58;9.58;;;;;;;25.24;76.51;95742.88;1704439;82;21035;-83
2022/08/15 10:42:09;;;;;;;10.93;9.93;;;;;;;25.28;75.55;95748.40;1702579;82;21111;-83
2022/08/15 10:44:49;;;;;;;10.75;9.65;;;;;;;25.13;75.96;95754.20;1698019;82;20991;-83
2022/08/15 10:47:29;;;;;;;11.50;10.40;;;;;;;24.99;76.40;95749.86;1723677;82;20994;-83
2022/08/15 10:50:01;;;;;;;10.15;9.03;;;;;;;25.11;77.89;95751.58;1719998;82;20948;-83
2022/08/15 10:52:39;;;;;;;11.10;10.05;;;;;;;25.13;77.69;95750.20;1709856;82;21055;-82
2022/08/15 10:55:28;;;;;;;10.18;9.15;;;;;;;25.07;77.58;95747.39;1719429;82;21402;-83
2022/08/15 10:58:05;;;;;;;10.08;9.05;;;;;;;25.07;77.58;95747.39;1714651;82;20971;-83
2022/08/15 11:00:42;;;;;;;10.80;9.68;;;;;;;25.18;78.36;95754.65;1717575;82;20966;-82
2022/08/15 11:03:35;;;;;;;10.00;9.03;;;;;;;25.34;75.52;95748.55;1711673;82;21037;-83
2022/08/15 11:06:07;;;;;;;9.83;8.83;;;;;;;25.34;75.52;95748.55;1706972;83;20937;-83
2022/08/15 11:08:34;;;;;;;10.28;9.28;;;;;;;25.49;76.43;95748.84;1676033;82;20984;-83
2022/08/15 11:11:05;;;;;;;10.53;9.43;;;;;;;25.54;76.61;95739.45;1695970;82;20968;-83
2022/08/15 11:13:31;;;;;;;9.98;9.08;;;;;;;25.69;75.47;95749.31;1695372;82;20932;-83
2022/08/15 11:16:08;;;;;;;9.63;8.65;;;;;;;25.71;74.97;95751.71;1691375;82;21096;-84
2022/08/15 11:18:38;;;;;;;11.75;9.88;;;;;;;25.73;72.95;95750.88;1686860;83;20996;-83
2022/08/15 11:21:36;;;;;;;10.00;9.00;;;;;;;25.79;73.72;95742.25;1686491;83;20980;-83
2022/08/15 11:24:06;;;;;;;10.75;9.58;;;;;;;25.84;73.24;95742.94;1669044;83;20972;-83
2022/08/15 11:26:32;;;;;;;10.68;9.38;;;;;;;25.90;71.88;95741.78;1666916;83;21422;-82
2022/08/15 11:29:18;;;;;;;10.03;9.03;;;;;;;25.96;73.17;95741.14;1678295;83;21055;-83
2022/08/15 11:31:49;;;;;;;10.58;9.60;;;;;;;26.00;72.92;95743.45;1675458;84;21119;-83
2022/08/15 11:34:23;;;;;;;9.88;9.05;;;;;;;26.09;72.66;95738.24;1692073;85;21422;-83
2022/08/15 11:36:50;;;;;;;10.70;9.63;;;;;;;26.12;71.49;95734.98;1685982;83;20972;-83
2022/08/15 11:39:17;;;;;;;10.10;9.20;;;;;;;26.23;72.50;95738.48;1679136;83;20980;-83
2022/08/15 11:41:54;;;;;;;10.32;9.08;;;;;;;26.36;73.25;95741.45;1686771;85;21338;-83
2022/08/15 11:44:22;;;;;;;10.43;9.43;;;;;;;26.39;70.62;95740.87;1666277;83;20981;-83
2022/08/15 11:46:48;;;;;;;11.55;10.13;;;;;;;26.42;71.63;95739.73;1667786;83;21063;-83
2022/08/15 11:49:29;;;;;;;10.45;9.53;;;;;;;26.49;72.72;95745.98;1679333;85;21363;-83
2022/08/15 11:52:03;;;;;;;10.70;9.78;;;;;;;26.51;70.37;95737.93;1666780;83;21040;-83
2022/08/15 11:54:29;;;;;;;10.10;9.20;;;;;;;26.59;70.68;95739.13;1682925;83;20972;-83
2022/08/15 11:57:01;;;;;;;10.48;9.30;;;;;;;26.57;69.23;95745.30;1674557;84;21321;-83
2022/08/15 11:59:35;;;;;;;11.30;10.20;;;;;;;26.61;69.75;95744.94;1681807;83;21354;-83
2022/08/15 12:02:22;;;;;;;10.88;9.88;;;;;;;26.59;70.22;95741.24;1666324;83;20973;-83
2022/08/15 12:04:48;;;;;;;11.15;9.93;;;;;;;26.58;69.64;95738.88;1666967;83;20941;-83
2022/08/15 12:07:28;;;;;;;11.80;10.58;;;;;;;26.35;67.41;95739.33;1666808;83;20968;-83
2022/08/15 12:10:00;;;;;;;10.85;9.75;;;;;;;26.43;70.26;95735.98;1669284;83;21000;-83